Terminal Aerodrome Forecast
Issued by NWS

Home | Current Version | Previous Version | Graphics & Text | Print | Product List | Glossary On
Versions: 1 2 3 4 5 6 7 8 9 10 11 12 13 14 15 16 17 18
000
FTUS43 KMPX 172053 AAA
TAFRNH
TAF AMD
KRNH 172053Z 1721/1818 17005KT 2SM -DZ BR OVC003
     FM180300 35006KT 6SM BR OVC008
     FM181000 35007KT P6SM OVC015
     FM181200 34010KT P6SM OVC040
     FM181600 33012KT P6SM SCT250=

USA.gov is the U.S. government's official web portal to all federal, state and local government web resources and services.